Time;durP1;ratioP1;P1;durP2;ratioP2;P2;SDS_P1;SDS_P2;PMS_P1;PMS_P2;Temp;Humidity;BMP_temperature;BMP_pressure;BME280_temperature;BME280_humidity;BME280_pressure;Samples;Min_cycle;Max_cycle;Signal;HPM_P1;HPM_P2
2022/11/16 00:01:44;;;;;;;31.70;16.33;;;7.00;99.90;6.10;100085;;;;579723;244;24067;-78
2022/11/16 00:04:12;;;;;;;38.10;16.90;;;7.00;99.90;6.10;100089;;;;579619;244;25111;-79
2022/11/16 00:06:39;;;;;;;31.93;15.90;;;7.00;99.90;6.10;100087;;;;588764;242;24103;-79
2022/11/16 00:09:23;;;;;;;33.13;15.90;;;7.00;99.90;6.10;100093;;;;579634;244;24068;-80
2022/11/16 00:11:57;;;;;;;27.37;15.60;;;6.90;99.90;6.10;100087;;;;579709;244;24061;-79
2022/11/16 00:14:24;;;;;;;34.60;17.33;;;6.90;99.90;6.10;100085;;;;579249;244;24069;-77
2022/11/16 00:16:52;;;;;;;32.53;16.77;;;6.90;99.90;6.00;100090;;;;588341;244;24069;-77
2022/11/16 00:19:23;;;;;;;40.20;18.57;;;6.90;99.90;6.00;100089;;;;579398;244;24084;-78
2022/11/16 00:21:49;;;;;;;34.13;15.20;;;6.80;99.90;6.00;100086;;;;579160;244;25176;-77
2022/11/16 00:24:21;;;;;;;33.67;16.40;;;6.80;99.90;6.00;100077;;;;579396;244;24137;-78
2022/11/16 00:26:45;;;;;;;33.37;15.73;;;6.80;99.90;6.00;100075;;;;579067;244;24063;-79
2022/11/16 00:29:18;;;;;;;32.67;16.87;;;6.80;99.90;6.00;100074;;;;588350;243;24118;-79
2022/11/16 00:31:47;;;;;;;32.67;16.23;;;6.80;99.90;6.00;100078;;;;579366;244;24080;-80
2022/11/16 00:34:15;;;;;;;39.00;15.97;;;6.80;99.90;6.00;100073;;;;579518;244;24062;-78
2022/11/16 00:36:43;;;;;;;32.90;16.97;;;6.80;99.90;6.00;100066;;;;579351;244;24052;-77
2022/11/16 00:39:11;;;;;;;29.90;16.97;;;6.80;99.90;6.00;100081;;;;579734;244;24088;-77
2022/11/16 00:41:42;;;;;;;38.93;17.53;;;6.80;99.90;6.00;100083;;;;588581;244;24072;-77
2022/11/16 00:44:07;;;;;;;32.73;16.93;;;6.80;99.90;6.00;100091;;;;579514;244;24057;-78
2022/11/16 00:46:34;;;;;;;31.77;15.50;;;6.80;99.90;6.00;100090;;;;580607;243;24095;-79
2022/11/16 00:49:06;;;;;;;40.73;17.27;;;6.80;99.90;6.00;100083;;;;580946;243;24111;-78
2022/11/16 00:51:31;;;;;;;36.23;16.40;;;6.80;99.90;6.00;100094;;;;580257;243;24110;-78
2022/11/16 00:53:59;;;;;;;34.33;17.63;;;6.80;99.90;6.00;100084;;;;580573;243;24086;-78
2022/11/16 00:56:27;;;;;;;32.53;15.67;;;6.80;99.90;6.00;100074;;;;589393;243;24096;-77
2022/11/16 00:58:55;;;;;;;28.13;15.03;;;6.80;99.90;6.00;100086;;;;580335;243;24160;-79
2022/11/16 01:01:26;;;;;;;30.10;14.90;;;6.80;99.90;6.00;100093;;;;580540;243;24055;-78
2022/11/16 01:03:51;;;;;;;28.27;13.83;;;6.80;99.90;6.00;100093;;;;579967;244;24164;-77
2022/11/16 01:06:22;;;;;;;31.93;14.97;;;6.80;99.90;6.00;100100;;;;579815;244;24076;-79
2022/11/16 01:08:48;;;;;;;29.83;14.33;;;6.80;99.90;6.00;100090;;;;579611;244;24080;-78
2022/11/16 01:14:02;;;;;;;30.20;14.40;;;6.90;99.90;6.10;100093;;;;579819;243;24172;-77
2022/11/16 01:16:30;;;;;;;26.20;13.60;;;6.90;99.90;6.10;100100;;;;588681;244;24069;-78
2022/11/16 01:18:58;;;;;;;30.10;13.47;;;6.90;99.90;6.10;100098;;;;579673;244;24119;-79
2022/11/16 01:21:26;;;;;;;33.20;15.27;;;6.90;99.90;6.10;100112;;;;579740;244;24132;-79
2022/11/16 01:23:54;;;;;;;30.60;15.47;;;6.90;99.90;6.10;100110;;;;579292;244;24061;-79
2022/11/16 01:26:21;;;;;;;34.60;15.10;;;6.90;99.90;6.10;100101;;;;579335;244;24096;-80
2022/11/16 01:28:50;;;;;;;24.83;11.70;;;6.90;99.90;6.10;100097;;;;579391;244;24094;-77
2022/11/16 01:31:21;;;;;;;13.57;7.30;;;6.90;99.90;6.10;100093;;;;579730;244;24093;-78
2022/11/16 01:33:46;;;;;;;3.80;2.47;;;6.90;99.90;6.10;100087;;;;581463;244;24068;-77
2022/11/16 01:36:14;;;;;;;10.30;4.30;;;6.90;99.90;6.10;100084;;;;579291;244;24051;-78
2022/11/16 01:38:42;;;;;;;5.67;2.67;;;6.90;99.90;6.10;100080;;;;579439;244;24119;-79
2022/11/16 01:41:16;;;;;;;3.40;2.27;;;6.90;99.90;6.10;100078;;;;579670;244;24042;-76
2022/11/16 01:43:59;;;;;;;3.03;1.83;;;6.90;99.90;6.10;100064;;;;588887;244;24195;-84
2022/11/16 01:46:30;;;;;;;1.83;1.20;;;6.90;99.90;6.10;100062;;;;588584;244;24072;-81
2022/11/16 01:48:55;;;;;;;3.13;1.47;;;6.90;99.90;6.10;100070;;;;580138;244;24080;-77
2022/11/16 01:51:23;;;;;;;1.83;0.93;;;7.00;99.90;6.10;100061;;;;588225;244;24088;-77
2022/11/16 01:53:55;;;;;;;1.00;1.00;;;6.90;99.90;6.10;100048;;;;579678;244;24089;-76
2022/11/16 01:56:19;;;;;;;1.77;0.70;;;7.00;99.90;6.20;100053;;;;579248;244;24123;-77
2022/11/16 01:58:49;;;;;;;0.80;0.70;;;7.00;99.90;6.20;100056;;;;580927;243;24067;-85
2022/11/16 02:01:14;;;;;;;0.77;0.50;;;7.00;99.90;6.20;100068;;;;580923;243;24048;-85
2022/11/16 02:03:42;;;;;;;0.30;0.30;;;7.00;99.90;6.10;100060;;;;580587;243;24098;-84
2022/11/16 02:06:25;;;;;;;0.77;0.77;;;7.00;99.90;6.10;100060;;;;583095;243;25134;-77
2022/11/16 02:12:37;;;;;;;0.63;0.63;;;6.90;99.90;6.10;100064;;;;582789;243;24104;-77
2022/11/16 02:15:35;;;;;;;2.67;0.70;;;6.90;99.90;6.00;100051;;;;588773;243;24070;-78
2022/11/16 02:18:24;;;;;;;1.53;0.70;;;6.80;99.90;6.00;100050;;;;580105;244;24071;-84
2022/11/16 02:21:04;;;;;;;12.33;0.93;;;6.80;99.90;6.00;100056;;;;582655;244;24095;-78
2022/11/16 02:24:19;;;;;;;0.90;0.90;;;6.70;99.90;5.90;100058;;;;585999;244;24097;-78
2022/11/16 02:27:11;;;;;;;0.70;0.70;;;6.70;99.90;5.90;100062;;;;580075;244;24063;-78
2022/11/16 02:29:51;;;;;;;0.70;0.70;;;6.80;99.90;5.90;100056;;;;576688;244;24053;-86
2022/11/16 02:32:31;;;;;;;0.70;0.70;;;6.70;99.90;5.90;100055;;;;577192;244;24073;-87
2022/11/16 02:35:14;;;;;;;0.47;0.47;;;6.70;99.90;6.00;100052;;;;588383;244;24067;-78
2022/11/16 02:37:53;;;;;;;0.50;0.50;;;6.80;99.90;6.00;100042;;;;579781;244;24093;-85
2022/11/16 02:40:21;;;;;;;0.50;0.50;;;6.80;99.90;6.00;100051;;;;588832;244;24123;-87
2022/11/16 02:43:02;;;;;;;1.13;0.60;;;6.80;99.90;6.00;100052;;;;586949;244;24077;-87
2022/11/16 02:45:29;;;;;;;2.30;0.77;;;6.80;99.90;6.00;100047;;;;578707;244;24064;-87
2022/11/16 02:47:58;;;;;;;0.83;0.83;;;6.80;99.90;6.00;100049;;;;588347;244;24071;-87
2022/11/16 02:50:28;;;;;;;0.77;0.77;;;6.80;99.90;6.00;100046;;;;588094;243;24065;-88
2022/11/16 02:52:54;;;;;;;0.87;0.87;;;6.80;99.90;6.00;100042;;;;577659;244;24161;-88
2022/11/16 02:55:24;;;;;;;1.03;0.60;;;6.90;99.90;6.00;100039;;;;579404;244;24071;-87
2022/11/16 02:57:58;;;;;;;0.47;0.47;;;6.80;99.90;6.10;100040;;;;576513;244;24065;-86
2022/11/16 03:00:26;;;;;;;0.50;0.50;;;6.90;99.90;6.10;100032;;;;588424;243;24063;-86
2022/11/16 03:02:56;;;;;;;1.93;0.50;;;6.90;99.90;6.10;100028;;;;566859;249;24149;-87
2022/11/16 03:05:33;;;;;;;1.27;0.77;;;6.80;99.90;6.10;100033;;;;549937;254;35182;-87
2022/11/16 03:08:07;;;;;;;2.70;0.70;;;6.90;99.90;6.00;100031;;;;576716;247;24085;-86
2022/11/16 03:13:23;;;;;;;2.23;0.80;;;6.90;99.90;6.10;100029;;;;568715;249;24111;-78
2022/11/16 03:15:55;;;;;;;0.80;0.80;;;6.90;99.90;6.10;100026;;;;568223;249;24160;-78
2022/11/16 03:18:21;;;;;;;0.20;0.20;;;6.90;99.90;6.10;100029;;;;567869;249;24107;-79
2022/11/16 03:20:48;;;;;;;1.70;0.90;;;6.80;99.90;6.00;100031;;;;568120;249;24085;-80
2022/11/16 03:23:16;;;;;;;1.53;0.80;;;6.80;99.90;5.90;100029;;;;568018;249;24101;-79
2022/11/16 03:25:50;;;;;;;0.70;0.70;;;6.70;99.90;5.80;100028;;;;576913;247;24130;-78
2022/11/16 03:28:39;;;;;;;3.07;0.90;;;6.70;99.90;5.80;100028;;;;567898;249;24101;-77
2022/11/16 03:31:13;;;;;;;0.50;0.50;;;6.60;99.90;5.80;100026;;;;576767;247;24101;-77
2022/11/16 03:33:51;;;;;;;0.60;0.60;;;6.60;99.90;5.70;100025;;;;567741;249;24094;-77
2022/11/16 03:36:27;;;;;;;0.93;0.70;;;6.50;99.90;5.70;100027;;;;567935;249;24089;-77
2022/11/16 03:38:55;;;;;;;0.57;0.57;;;6.50;99.90;5.70;100028;;;;568427;249;24086;-77
2022/11/16 03:41:23;;;;;;;1.83;0.80;;;6.50;99.90;5.70;100024;;;;568407;249;24111;-77
2022/11/16 03:43:54;;;;;;;1.03;0.93;;;6.50;99.90;5.60;100029;;;;568371;249;24096;-77
2022/11/16 03:46:22;;;;;;;1.17;1.00;;;6.40;99.90;5.60;100029;;;;567934;249;24094;-81
2022/11/16 03:48:47;;;;;;;3.53;1.00;;;6.50;99.90;5.60;100028;;;;576324;249;24105;-79
2022/11/16 03:51:18;;;;;;;0.80;0.60;;;6.40;99.90;5.60;100035;;;;576568;247;24144;-82
2022/11/16 03:53:43;;;;;;;1.47;0.83;;;6.40;99.90;5.60;100025;;;;576211;249;24088;-81
2022/11/16 03:56:11;;;;;;;1.13;0.87;;;6.40;99.90;5.50;100034;;;;576537;247;24138;-77
2022/11/16 03:58:39;;;;;;;0.93;0.93;;;6.40;99.90;5.60;100026;;;;576521;247;24067;-80
2022/11/16 04:01:08;;;;;;;0.50;0.50;;;6.50;99.90;5.60;100021;;;;576641;247;24089;-77
2022/11/16 04:03:36;;;;;;;0.50;0.50;;;6.40;99.90;5.70;100025;;;;576521;247;24105;-80
2022/11/16 04:25:54;;;;;;;0.83;0.83;;;6.40;99.90;5.60;100039;;;;568868;249;24107;-79
2022/11/16 04:28:24;;;;;;;0.87;0.70;;;6.40;99.90;5.60;100034;;;;577363;247;24113;-80
2022/11/16 04:39:10;;;;;;;1.20;0.87;;;6.40;99.90;5.60;100026;;;;568290;249;24094;-80
2022/11/16 04:47:05;;;;;;;0.67;0.67;;;6.40;99.90;5.60;100025;;;;568164;249;24142;-81
2022/11/16 04:47:07;;;;;;;0.80;0.80;;;6.40;99.90;5.60;100022;;;;574828;249;24091;-80
2022/11/16 04:49:35;;;;;;;0.83;0.83;;;6.40;99.90;5.50;100020;;;;576877;247;24103;-78
2022/11/16 04:52:03;;;;;;;1.03;0.93;;;6.40;99.90;5.50;100021;;;;576379;247;24078;-79
2022/11/16 04:54:31;;;;;;;0.50;0.50;;;6.30;99.90;5.50;100025;;;;576518;247;24098;-79
2022/11/16 04:56:59;;;;;;;0.73;0.73;;;6.30;99.90;5.60;100018;;;;576355;247;24102;-80
2022/11/16 04:59:27;;;;;;;0.27;0.27;;;6.30;99.90;5.60;100049;;;;576125;247;25190;-77
2022/11/16 05:02:07;;;;;;;0.77;0.77;;;6.40;99.90;5.50;100027;;;;576294;247;24096;-87
2022/11/16 05:04:41;;;;;;;0.80;0.80;;;6.30;99.90;5.50;100016;;;;576239;248;24203;-86
2022/11/16 05:07:11;;;;;;;2.63;0.37;;;6.30;99.90;5.50;100009;;;;567602;249;24103;-85
2022/11/16 05:09:41;;;;;;;0.67;0.67;;;6.30;99.90;5.50;100017;;;;567534;249;24145;-86
2022/11/16 05:12:09;;;;;;;0.40;0.40;;;6.30;99.90;5.50;100010;;;;567568;249;24136;-86
2022/11/16 05:14:37;;;;;;;0.83;0.83;;;6.30;99.90;5.50;100021;;;;567316;249;24472;-82
2022/11/16 05:17:05;;;;;;;1.13;1.00;;;6.20;99.90;5.40;100013;;;;576204;247;24100;-77
2022/11/16 05:22:19;;;;;;;11.13;1.17;;;6.20;99.90;5.40;100017;;;;567546;249;24110;-78
2022/11/16 05:24:47;;;;;;;1.00;1.00;;;6.20;99.90;5.40;100012;;;;567545;249;24099;-78
2022/11/16 05:27:15;;;;;;;1.03;1.03;;;6.20;99.90;5.40;100031;;;;576261;247;24108;-80
2022/11/16 05:29:44;;;;;;;1.10;1.03;;;6.20;99.90;5.40;100017;;;;567465;249;25143;-77
2022/11/16 05:32:12;;;;;;;1.47;1.40;;;6.20;99.90;5.40;100030;;;;576827;247;24099;-77
2022/11/16 05:34:41;;;;;;;1.30;1.20;;;6.20;99.90;5.30;100022;;;;568794;248;24142;-77
2022/11/16 05:37:08;;;;;;;0.97;0.93;;;6.20;99.90;5.30;100030;;;;576880;249;24097;-76
2022/11/16 05:39:36;;;;;;;2.90;0.90;;;6.10;99.90;5.30;100035;;;;568432;249;24095;-78
2022/11/16 05:42:04;;;;;;;0.93;0.60;;;6.10;99.90;5.30;100033;;;;576860;246;24094;-77
2022/11/16 05:44:36;;;;;;;0.80;0.80;;;6.10;99.90;5.20;100023;;;;558639;253;24148;-76
2022/11/16 05:47:00;;;;;;;5.57;0.73;;;6.00;99.90;5.20;100022;;;;558372;253;24145;-77
2022/11/16 05:49:29;;;;;;;0.70;0.70;;;6.00;99.90;5.10;100032;;;;566831;252;24161;-80
2022/11/16 05:51:57;;;;;;;0.63;0.63;;;5.90;99.90;5.10;100028;;;;558266;253;24145;-78
2022/11/16 05:54:25;;;;;;;0.67;0.67;;;5.90;99.90;5.00;100033;;;;558265;253;24121;-78
2022/11/16 05:56:53;;;;;;;2.07;1.07;;;5.90;99.90;5.00;100042;;;;558338;253;24158;-81
2022/11/16 05:59:21;;;;;;;1.00;0.90;;;5.80;99.90;5.00;100032;;;;558321;253;24138;-77
2022/11/16 06:01:49;;;;;;;1.43;0.97;;;5.80;99.90;4.90;100029;;;;560625;253;24134;-79
2022/11/16 06:04:17;;;;;;;0.60;0.60;;;5.70;99.90;4.90;100041;;;;558504;253;24111;-82
2022/11/16 06:06:44;;;;;;;0.53;0.53;;;5.70;99.90;4.90;100036;;;;560457;253;24110;-80
2022/11/16 06:09:15;;;;;;;4.53;1.60;;;5.70;99.90;4.90;100045;;;;558058;253;24124;-83
2022/11/16 06:11:40;;;;;;;0.60;0.60;;;5.70;99.90;4.80;100049;;;;557607;253;24121;-80
2022/11/16 06:14:09;;;;;;;1.23;1.13;;;5.70;99.90;4.80;100041;;;;557862;253;24155;-77
2022/11/16 06:16:37;;;;;;;6.87;1.47;;;5.60;99.90;4.80;100045;;;;560338;253;24121;-85
2022/11/16 06:19:05;;;;;;;1.77;1.17;;;5.60;99.90;4.80;100055;;;;558788;253;24196;-83
2022/11/16 06:21:33;;;;;;;1.07;0.80;;;5.60;99.90;4.90;100055;;;;558590;253;24095;-76
2022/11/16 06:24:01;;;;;;;1.07;0.87;;;5.70;99.90;4.80;100051;;;;558256;253;24204;-76
2022/11/16 06:26:28;;;;;;;1.87;1.50;;;5.60;99.90;4.80;100048;;;;558061;253;24171;-78
2022/11/16 06:28:56;;;;;;;1.53;1.30;;;5.60;99.90;4.80;100055;;;;558032;253;24109;-77
2022/11/16 06:31:24;;;;;;;0.97;0.70;;;5.60;99.90;4.80;100067;;;;558048;253;24204;-77
2022/11/16 06:33:52;;;;;;;2.33;1.33;;;5.60;99.90;4.80;100059;;;;558000;253;24125;-77
2022/11/16 06:36:20;;;;;;;2.10;0.97;;;5.60;99.90;4.70;100058;;;;557990;253;24114;-76
2022/11/16 06:38:48;;;;;;;2.93;0.80;;;5.60;99.90;4.70;100057;;;;557971;253;24160;-76
2022/11/16 06:41:16;;;;;;;0.93;0.93;;;5.50;99.90;4.70;100065;;;;558038;253;24135;-77
2022/11/16 06:43:44;;;;;;;1.53;1.30;;;5.50;99.90;4.70;100062;;;;557728;252;24169;-81
2022/11/16 06:46:12;;;;;;;2.50;1.30;;;5.40;99.90;4.60;100060;;;;558940;253;24145;-78
2022/11/16 06:48:40;;;;;;;1.57;1.33;;;5.40;99.90;4.60;100051;;;;558469;253;24224;-79
2022/11/16 06:51:08;;;;;;;1.37;1.37;;;5.40;99.90;4.70;100053;;;;558492;253;24148;-79
2022/11/16 06:53:36;;;;;;;2.03;1.47;;;5.50;99.90;4.60;100055;;;;558234;253;24135;-77
2022/11/16 06:56:04;;;;;;;1.63;1.53;;;5.40;99.90;4.60;100061;;;;558184;253;24142;-78
2022/11/16 06:58:32;;;;;;;1.50;1.40;;;5.50;99.90;4.60;100062;;;;556715;254;24167;-86
2022/11/16 07:01:12;;;;;;;1.57;1.47;;;5.40;99.90;4.60;100064;;;;560679;253;24086;-78
2022/11/16 07:03:37;;;;;;;4.53;1.57;;;5.40;99.90;4.50;100068;;;;557086;254;24158;-83
2022/11/16 07:06:08;;;;;;;3.23;1.43;;;5.40;99.90;4.50;100061;;;;558081;253;24133;-87
2022/11/16 07:08:39;;;;;;;2.07;1.50;;;5.30;99.90;4.40;100064;;;;556012;254;24098;-85
2022/11/16 07:11:10;;;;;;;1.47;1.20;;;5.30;99.90;4.40;100059;;;;567648;249;24102;-83
2022/11/16 07:13:38;;;;;;;1.30;1.30;;;5.20;99.90;4.30;100067;;;;569853;249;24102;-86
2022/11/16 07:16:06;;;;;;;2.27;1.40;;;5.20;99.90;4.30;100056;;;;567532;249;24087;-81
2022/11/16 07:18:37;;;;;;;3.17;1.50;;;5.10;99.90;4.30;100062;;;;576814;247;24108;-78
2022/11/16 07:21:08;;;;;;;1.60;1.50;;;5.20;99.90;4.40;100064;;;;567739;249;24101;-77
2022/11/16 07:23:36;;;;;;;1.20;1.10;;;5.20;99.90;4.30;100060;;;;567316;249;24108;-84
2022/11/16 07:26:06;;;;;;;1.37;1.37;;;5.20;99.90;4.30;100066;;;;568006;249;24115;-78
2022/11/16 07:28:32;;;;;;;1.60;1.50;;;5.10;99.90;4.20;100058;;;;567781;249;24123;-78
2022/11/16 07:31:03;;;;;;;1.60;1.50;;;5.10;99.90;4.20;100050;;;;576564;247;24123;-86
2022/11/16 07:33:31;;;;;;;1.70;1.60;;;5.00;99.90;4.20;100056;;;;567833;249;24086;-85
2022/11/16 07:36:02;;;;;;;1.70;1.60;;;5.10;99.90;4.20;100052;;;;576522;247;24098;-87
2022/11/16 07:38:31;;;;;;;1.77;1.67;;;5.10;99.90;4.20;100062;;;;576317;249;24109;-84
2022/11/16 07:41:11;;;;;;;2.70;1.30;;;5.10;99.90;4.30;100060;;;;567873;249;24169;-86
2022/11/16 07:43:39;;;;;;;1.93;1.30;;;5.10;99.90;4.30;100053;;;;567400;249;24132;-87
2022/11/16 07:46:12;;;;;;;1.63;1.53;;;5.10;99.90;4.20;100047;;;;576158;248;24122;-87
2022/11/16 07:48:41;;;;;;;4.03;1.70;;;5.00;99.90;4.10;100050;;;;576201;247;24096;-80
2022/11/16 07:51:08;;;;;;;2.10;1.50;;;5.00;99.90;4.00;100046;;;;557713;253;24125;-78
2022/11/16 07:53:36;;;;;;;1.43;1.33;;;4.90;99.90;4.00;100053;;;;556975;253;24123;-78
2022/11/16 07:56:04;;;;;;;2.67;1.63;;;4.90;99.90;4.10;100063;;;;558440;253;24130;-77
2022/11/16 07:58:32;;;;;;;2.37;1.43;;;4.90;99.90;4.00;100060;;;;566501;253;24120;-78
2022/11/16 08:01:05;;;;;;;1.40;1.30;;;4.90;99.90;4.00;100059;;;;570708;249;24145;-83
2022/11/16 08:03:37;;;;;;;1.53;1.43;;;4.90;99.90;3.90;100059;;;;558397;253;24136;-82
2022/11/16 08:06:01;;;;;;;2.97;2.00;;;4.80;99.90;3.90;100068;;;;557849;253;24133;-78
2022/11/16 08:08:32;;;;;;;1.60;1.50;;;4.70;99.90;3.90;100074;;;;551750;254;35457;-79
2022/11/16 08:11:03;;;;;;;0.70;0.70;;;4.70;99.90;3.80;100069;;;;557609;253;24176;-77
2022/11/16 08:13:33;;;;;;;1.57;1.10;;;4.60;99.90;3.70;100066;;;;568289;249;24107;-78
2022/11/16 08:16:03;;;;;;;1.00;0.97;;;4.60;99.90;3.70;100075;;;;567761;249;24105;-76
2022/11/16 08:18:31;;;;;;;0.87;0.87;;;4.60;99.90;3.70;100080;;;;567446;249;24111;-77
2022/11/16 08:21:01;;;;;;;2.43;1.80;;;4.50;99.90;3.60;100094;;;;568065;249;24186;-76
2022/11/16 08:23:26;;;;;;;2.03;1.03;;;4.50;99.90;3.50;100086;;;;568187;249;24145;-78
2022/11/16 08:26:03;;;;;;;1.30;1.20;;;4.40;99.90;3.50;100089;;;;568155;249;24089;-77
2022/11/16 08:28:34;;;;;;;1.00;1.00;;;4.40;99.90;3.40;100093;;;;568183;249;24086;-78
2022/11/16 08:31:02;;;;;;;2.33;1.03;;;4.30;99.90;3.30;100088;;;;568088;249;24105;-76
2022/11/16 08:33:27;;;;;;;2.60;0.90;;;4.20;99.90;3.30;100090;;;;567603;249;24098;-77
2022/11/16 08:35:56;;;;;;;2.10;0.90;;;4.20;99.90;3.30;100089;;;;567870;249;24093;-79
2022/11/16 08:38:23;;;;;;;1.20;1.10;;;4.20;99.90;3.30;100089;;;;576534;247;24133;-79
2022/11/16 08:40:51;;;;;;;1.90;1.13;;;4.20;99.90;3.30;100095;;;;576494;247;24101;-77
2022/11/16 08:43:20;;;;;;;0.97;0.87;;;4.20;99.90;3.30;100078;;;;576461;249;24101;-78
2022/11/16 08:45:52;;;;;;;1.20;1.10;;;4.20;99.90;3.30;100093;;;;576524;248;24094;-78
2022/11/16 08:48:16;;;;;;;4.23;1.30;;;4.20;99.90;3.30;100091;;;;567433;249;24118;-78
2022/11/16 08:50:44;;;;;;;1.30;1.13;;;4.20;99.90;3.30;100086;;;;576176;247;24092;-78
2022/11/16 08:53:14;;;;;;;1.13;1.13;;;4.20;99.90;3.30;100087;;;;576166;247;24191;-77
2022/11/16 08:55:40;;;;;;;1.23;1.20;;;4.20;99.90;3.40;100098;;;;576094;249;25334;-77
2022/11/16 08:58:07;;;;;;;1.50;1.40;;;4.30;99.90;3.40;100078;;;;576118;247;24176;-77
2022/11/16 09:00:40;;;;;;;2.10;1.50;;;4.30;99.90;3.40;100084;;;;576219;247;24095;-77
2022/11/16 09:03:04;;;;;;;2.73;1.40;;;4.30;99.90;3.40;100092;;;;575772;249;24100;-77
2022/11/16 09:05:32;;;;;;;2.20;1.48;;;4.20;99.90;3.40;100098;;;;571239;247;35242;-78
2022/11/16 09:08:00;;;;;;;1.07;0.90;;;4.30;99.90;3.40;100084;;;;577228;247;24087;-76
2022/11/16 09:10:28;;;;;;;1.23;0.70;;;4.30;99.90;3.30;100099;;;;577228;247;25146;-78
2022/11/16 09:12:56;;;;;;;1.17;1.17;;;4.30;99.90;3.40;100093;;;;577056;247;24110;-78
2022/11/16 09:15:24;;;;;;;2.60;1.40;;;4.30;99.90;3.30;100084;;;;568661;249;24109;-76
2022/11/16 09:17:53;;;;;;;1.70;1.60;;;4.20;99.90;3.30;100094;;;;577050;247;24168;-76
2022/11/16 09:20:22;;;;;;;2.17;1.70;;;4.20;99.90;3.20;100083;;;;577032;249;24102;-81
2022/11/16 09:22:47;;;;;;;2.17;1.83;;;4.10;99.90;3.20;100088;;;;576363;249;25160;-78
2022/11/16 09:25:17;;;;;;;4.53;1.73;;;4.10;99.90;3.20;100089;;;;576786;247;24163;-79
2022/11/16 09:27:43;;;;;;;2.30;2.10;;;4.10;99.90;3.20;100087;;;;576256;249;24091;-82
2022/11/16 09:30:15;;;;;;;3.37;1.97;;;4.10;99.90;3.20;100097;;;;576594;247;24137;-85
2022/11/16 09:32:39;;;;;;;3.57;2.07;;;4.10;99.90;3.20;100085;;;;567521;249;24130;-78
2022/11/16 09:35:10;;;;;;;1.63;1.53;;;4.10;99.90;3.20;100088;;;;576337;247;24136;-79
2022/11/16 09:37:35;;;;;;;2.47;1.87;;;4.10;99.90;3.20;100085;;;;576155;249;25330;-77
2022/11/16 09:40:03;;;;;;;1.63;1.53;;;4.10;99.90;3.30;100083;;;;576386;247;24106;-79
2022/11/16 09:42:49;;;;;;;3.80;1.70;;;4.20;99.90;3.20;100083;;;;576527;247;24098;-85
2022/11/16 09:45:38;;;;;;;3.57;1.80;;;4.10;99.90;3.20;100079;;;;576094;246;24096;-84
2022/11/16 09:48:06;;;;;;;4.23;1.70;;;4.10;99.90;3.30;100077;;;;576181;249;24090;-84
2022/11/16 09:50:52;;;;;;;1.43;1.43;;;4.20;99.90;3.20;100068;;;;567629;249;24095;-82
2022/11/16 09:53:41;;;;;;;3.77;1.43;;;4.10;99.90;3.30;100061;;;;576155;245;24417;-78
2022/11/16 09:56:12;;;;;;;2.30;2.10;;;4.20;99.90;3.30;100069;;;;576366;248;24100;-82
2022/11/16 09:59:08;;;;;;;2.50;2.30;;;4.20;99.90;3.30;100070;;;;567325;249;24172;-81
2022/11/16 10:01:54;;;;;;;1.80;1.60;;;4.20;99.90;3.30;100068;;;;576550;248;24103;-77
2022/11/16 10:04:52;;;;;;;5.00;2.20;;;4.20;99.90;3.30;100062;;;;564593;249;24113;-76
2022/11/16 10:07:32;;;;;;;2.47;2.37;;;4.20;99.90;3.30;100067;;;;559110;249;24119;-75
2022/11/16 10:10:00;;;;;;;3.83;2.43;;;4.20;99.90;3.40;100075;;;;567820;249;24148;-80
2022/11/16 10:13:11;;;;;;;2.20;2.00;;;4.20;99.90;3.40;100066;;;;576773;247;24082;-86
2022/11/16 10:16:00;;;;;;;2.17;2.03;;;4.30;99.90;3.40;100056;;;;567360;253;24115;-84
2022/11/16 10:18:57;;;;;;;4.23;3.07;;;4.20;99.90;3.40;100066;;;;568894;246;24093;-81
2022/11/16 10:21:50;;;;;;;2.80;2.43;;;4.20;99.90;3.30;100075;;;;581255;243;24061;-80
2022/11/16 10:24:33;;;;;;;2.43;2.10;;;4.20;99.90;3.30;100066;;;;587274;243;24164;-80
2022/11/16 10:27:19;;;;;;;2.00;1.90;;;4.10;99.90;3.20;100056;;;;580512;243;24060;-77
2022/11/16 10:30:14;;;;;;;2.10;2.00;;;4.00;99.90;3.10;100063;;;;580129;243;24074;-88
2022/11/16 10:33:04;;;;;;;3.07;2.73;;;4.00;99.90;3.10;100062;;;;577351;243;24062;-80
2022/11/16 10:35:41;;;;;;;2.67;2.10;;;4.00;99.90;3.10;100058;;;;583334;243;24060;-80
2022/11/16 10:38:14;;;;;;;2.50;2.30;;;4.00;99.90;3.10;100057;;;;579415;244;24048;-79
2022/11/16 10:40:43;;;;;;;2.87;2.57;;;4.00;99.90;3.10;100062;;;;579911;244;24061;-83
2022/11/16 10:43:16;;;;;;;9.10;3.23;;;4.00;99.90;3.20;100052;;;;588435;244;24059;-83
2022/11/16 10:45:47;;;;;;;6.23;3.07;;;4.10;99.90;3.20;100054;;;;588553;243;24099;-85
2022/11/16 10:48:20;;;;;;;2.73;2.40;;;4.10;99.90;3.20;100056;;;;582310;244;24127;-78
2022/11/16 10:50:48;;;;;;;3.17;2.53;;;4.10;99.90;3.20;100056;;;;585331;244;24212;-78
2022/11/16 10:53:25;;;;;;;4.43;3.00;;;4.10;99.90;3.10;100052;;;;579729;244;24138;-78
2022/11/16 10:56:36;;;;;;;3.70;3.03;;;4.00;99.90;3.10;100053;;;;574879;244;24069;-78
2022/11/16 10:59:10;;;;;;;2.83;2.63;;;4.00;99.90;3.10;100048;;;;588203;244;24089;-79
2022/11/16 11:01:46;;;;;;;4.27;2.40;;;3.90;99.90;3.00;100040;;;;579434;244;24074;-78
2022/11/16 11:04:30;;;;;;;2.53;2.33;;;3.90;99.90;3.00;100045;;;;588350;244;25115;-78
2022/11/16 11:06:58;;;;;;;3.13;2.70;;;3.90;99.90;3.00;100052;;;;579619;243;24082;-80
2022/11/16 11:09:28;;;;;;;2.43;2.23;;;3.90;99.90;3.00;100045;;;;587099;244;24183;-79
2022/11/16 11:15:10;;;;;;;1.37;1.13;;;3.90;99.90;3.00;100043;;;;581846;244;24093;-83
2022/11/16 11:17:38;;;;;;;2.23;1.30;;;3.90;99.90;3.00;100046;;;;576112;244;24080;-79
2022/11/16 11:20:06;;;;;;;4.23;1.23;;;3.90;99.90;3.00;100040;;;;588015;243;24090;-77
2022/11/16 11:22:34;;;;;;;2.13;1.50;;;3.90;99.90;3.00;100054;;;;576314;244;24080;-78
2022/11/16 11:25:02;;;;;;;2.03;1.20;;;3.90;99.90;2.90;100043;;;;587216;244;24100;-76
2022/11/16 11:27:36;;;;;;;2.10;1.07;;;3.80;99.90;2.90;100047;;;;582209;244;25146;-77
2022/11/16 11:30:02;;;;;;;4.07;1.90;;;3.80;99.90;2.90;100053;;;;579565;242;24139;-77
2022/11/16 11:32:32;;;;;;;2.30;1.97;;;3.80;99.90;2.90;100047;;;;580930;243;24088;-78
2022/11/16 11:35:00;;;;;;;6.20;1.70;;;3.80;99.90;3.00;100051;;;;589451;242;24096;-78
2022/11/16 11:37:33;;;;;;;3.13;1.93;;;3.90;99.90;2.90;100036;;;;580381;243;24119;-77
2022/11/16 11:40:19;;;;;;;3.67;2.27;;;3.80;99.90;2.90;100046;;;;580204;243;24086;-80
2022/11/16 11:42:58;;;;;;;3.33;2.20;;;3.80;99.90;2.90;100045;;;;582879;243;24096;-79
2022/11/16 11:45:35;;;;;;;5.47;2.27;;;3.80;99.90;2.80;100049;;;;588888;243;24052;-78
2022/11/16 11:48:22;;;;;;;2.27;2.07;;;3.80;99.90;2.80;100056;;;;588674;244;24132;-77
2022/11/16 11:50:53;;;;;;;3.00;2.40;;;3.70;99.90;2.80;100056;;;;585241;244;24071;-78
2022/11/16 11:53:48;;;;;;;2.10;1.90;;;3.70;99.90;2.60;100065;;;;588414;243;24072;-80
2022/11/16 11:56:16;;;;;;;2.30;2.10;;;3.60;99.90;2.50;100052;;;;572255;244;24060;-77
2022/11/16 11:58:44;;;;;;;3.00;2.63;;;3.40;99.90;2.50;100058;;;;579349;244;24066;-77
2022/11/16 12:01:33;;;;;;;1.90;1.80;;;3.40;99.90;2.50;100052;;;;579534;244;24121;-82
2022/11/16 12:04:23;;;;;;;2.37;2.00;;;3.40;99.90;2.50;100057;;;;574284;244;35067;-78
2022/11/16 12:07:15;;;;;;;7.87;1.60;;;3.40;99.90;2.50;100060;;;;578666;244;24072;-81
2022/11/16 12:10:00;;;;;;;1.93;1.77;;;3.40;99.90;2.50;100064;;;;579573;244;24053;-76
2022/11/16 12:12:31;;;;;;;2.97;2.53;;;3.50;99.90;2.50;100061;;;;578964;244;24190;-80
2022/11/16 12:15:27;;;;;;;3.00;2.70;;;3.40;99.90;2.40;100052;;;;579447;244;24076;-77
2022/11/16 12:18:10;;;;;;;2.47;2.30;;;3.40;99.90;2.40;100051;;;;579623;244;24100;-79
2022/11/16 12:21:09;;;;;;;2.60;2.43;;;3.30;99.90;2.50;100052;;;;579421;244;24093;-77
2022/11/16 12:24:04;;;;;;;3.30;1.70;;;3.30;99.90;2.40;100058;;;;579381;244;24050;-79
2022/11/16 12:27:06;;;;;;;3.43;2.33;;;3.30;99.90;2.30;100042;;;;579563;244;24078;-82
2022/11/16 12:29:42;;;;;;;3.67;3.20;;;3.20;99.90;2.20;100047;;;;587655;244;24147;-77
2022/11/16 12:32:53;;;;;;;4.57;3.00;;;3.20;99.90;2.30;100050;;;;579181;244;24060;-78
2022/11/16 12:35:51;;;;;;;7.83;3.17;;;3.20;99.90;2.30;100040;;;;579382;244;24049;-76